sensor_id;sensor_type;location;lat;lon;timestamp;pressure;altitude;pressure_sealevel;temperature;humidity
30856;BME280;17570;0.000;0.000;2022-07-23T00:01:25;97124.20;;;30.75;30.88
30856;BME280;17570;0.000;0.000;2022-07-23T00:03:54;97130.27;;;30.70;30.79
30856;BME280;17570;0.000;0.000;2022-07-23T00:06:22;97124.10;;;30.70;31.00
30856;BME280;17570;0.000;0.000;2022-07-23T00:08:50;97126.45;;;30.66;30.95
30856;BME280;17570;0.000;0.000;2022-07-23T00:11:18;97131.74;;;30.61;31.13
30856;BME280;17570;0.000;0.000;2022-07-23T00:13:45;97136.55;;;30.59;31.10
30856;BME280;17570;0.000;0.000;2022-07-23T00:16:13;97131.19;;;30.59;31.30
30856;BME280;17570;0.000;0.000;2022-07-23T00:18:41;97135.41;;;30.55;31.19
30856;BME280;17570;0.000;0.000;2022-07-23T00:21:08;97135.64;;;30.54;31.27
30856;BME280;17570;0.000;0.000;2022-07-23T00:23:36;97132.96;;;30.54;31.07
30856;BME280;17570;0.000;0.000;2022-07-23T00:26:04;97131.09;;;30.54;31.39
30856;BME280;17570;0.000;0.000;2022-07-23T00:28:33;97131.27;;;30.47;31.16
30856;BME280;17570;0.000;0.000;2022-07-23T00:31:01;97126.31;;;30.39;31.50
30856;BME280;17570;0.000;0.000;2022-07-23T00:33:28;97121.47;;;30.36;31.45
30856;BME280;17570;0.000;0.000;2022-07-23T00:35:56;97129.98;;;30.33;31.57
30856;BME280;17570;0.000;0.000;2022-07-23T00:38:23;97129.91;;;30.28;31.57
30856;BME280;17570;0.000;0.000;2022-07-23T00:40:51;97136.06;;;30.29;31.90
30856;BME280;17570;0.000;0.000;2022-07-23T00:43:24;97128.51;;;30.26;31.71
30856;BME280;17570;0.000;0.000;2022-07-23T00:45:48;97125.28;;;30.23;31.84
30856;BME280;17570;0.000;0.000;2022-07-23T00:48:16;97129.49;;;30.19;31.76
30856;BME280;17570;0.000;0.000;2022-07-23T00:50:43;97126.26;;;30.17;31.64
30856;BME280;17570;0.000;0.000;2022-07-23T00:53:12;97125.67;;;30.15;31.79
30856;BME280;17570;0.000;0.000;2022-07-23T00:55:40;97128.80;;;30.12;31.80
30856;BME280;17570;0.000;0.000;2022-07-23T00:58:07;97126.37;;;30.11;31.75
30856;BME280;17570;0.000;0.000;2022-07-23T01:00:36;97128.23;;;30.10;31.84
30856;BME280;17570;0.000;0.000;2022-07-23T01:03:03;97120.68;;;30.07;31.84
30856;BME280;17570;0.000;0.000;2022-07-23T01:05:31;97123.14;;;30.09;31.70
30856;BME280;17570;0.000;0.000;2022-07-23T01:07:59;97122.08;;;30.10;31.60
30856;BME280;17570;0.000;0.000;2022-07-23T01:10:26;97120.94;;;30.06;31.55
30856;BME280;17570;0.000;0.000;2022-07-23T01:13:09;97120.05;;;30.00;31.76
30856;BME280;17570;0.000;0.000;2022-07-23T01:15:33;97117.75;;;29.92;31.87
30856;BME280;17570;0.000;0.000;2022-07-23T01:18:02;97111.59;;;29.91;31.79
30856;BME280;17570;0.000;0.000;2022-07-23T01:20:30;97114.52;;;29.90;31.77
30856;BME280;17570;0.000;0.000;2022-07-23T01:23:00;97107.86;;;29.92;31.90
30856;BME280;17570;0.000;0.000;2022-07-23T01:25:28;97109.17;;;29.90;31.91
30856;BME280;17570;0.000;0.000;2022-07-23T01:27:58;97111.84;;;29.90;31.70
30856;BME280;17570;0.000;0.000;2022-07-23T01:30:25;97108.83;;;29.86;31.89
30856;BME280;17570;0.000;0.000;2022-07-23T01:32:53;97108.02;;;29.86;31.54
30856;BME280;17570;0.000;0.000;2022-07-23T01:35:21;97110.92;;;29.84;31.61
30856;BME280;17570;0.000;0.000;2022-07-23T01:37:50;97116.52;;;29.83;31.63
30856;BME280;17570;0.000;0.000;2022-07-23T01:40:18;97110.02;;;29.79;31.98
30856;BME280;17570;0.000;0.000;2022-07-23T01:42:46;97111.64;;;29.80;31.72
30856;BME280;17570;0.000;0.000;2022-07-23T01:45:14;97106.20;;;29.74;31.92
30856;BME280;17570;0.000;0.000;2022-07-23T01:47:43;97099.48;;;29.72;31.92
30856;BME280;17570;0.000;0.000;2022-07-23T01:50:10;97101.10;;;29.73;31.96
30856;BME280;17570;0.000;0.000;2022-07-23T01:52:43;97095.19;;;29.71;31.81
30856;BME280;17570;0.000;0.000;2022-07-23T01:55:11;97095.91;;;29.66;31.82
30856;BME280;17570;0.000;0.000;2022-07-23T01:57:40;97095.83;;;29.61;32.02
30856;BME280;17570;0.000;0.000;2022-07-23T02:00:11;97097.44;;;29.62;31.97
30856;BME280;17570;0.000;0.000;2022-07-23T02:02:44;97098.72;;;29.60;32.15
30856;BME280;17570;0.000;0.000;2022-07-23T02:05:11;97093.03;;;29.56;32.09
30856;BME280;17570;0.000;0.000;2022-07-23T02:07:39;97090.83;;;29.53;32.15
30856;BME280;17570;0.000;0.000;2022-07-23T02:10:07;97091.05;;;29.52;32.15
30856;BME280;17570;0.000;0.000;2022-07-23T02:12:36;97091.30;;;29.50;32.09
30856;BME280;17570;0.000;0.000;2022-07-23T02:15:04;97095.27;;;29.47;32.16
30856;BME280;17570;0.000;0.000;2022-07-23T02:17:32;97092.59;;;29.47;32.33
30856;BME280;17570;0.000;0.000;2022-07-23T02:20:01;97100.50;;;29.42;32.16
30856;BME280;17570;0.000;0.000;2022-07-23T02:22:28;97099.94;;;29.40;32.23
30856;BME280;17570;0.000;0.000;2022-07-23T02:24:56;97101.56;;;29.41;32.09
30856;BME280;17570;0.000;0.000;2022-07-23T02:27:23;97099.59;;;29.37;32.04
30856;BME280;17570;0.000;0.000;2022-07-23T02:29:52;97097.98;;;29.36;32.12
30856;BME280;17570;0.000;0.000;2022-07-23T02:32:19;97100.09;;;29.34;32.13
30856;BME280;17570;0.000;0.000;2022-07-23T02:34:50;97104.63;;;29.33;32.26
30856;BME280;17570;0.000;0.000;2022-07-23T02:37:19;97106.38;;;29.28;32.13
30856;BME280;17570;0.000;0.000;2022-07-23T02:39:46;97109.64;;;29.30;32.38
30856;BME280;17570;0.000;0.000;2022-07-23T02:42:15;97114.17;;;29.29;32.07
30856;BME280;17570;0.000;0.000;2022-07-23T02:44:42;97103.95;;;29.26;32.20
30856;BME280;17570;0.000;0.000;2022-07-23T02:47:10;97111.41;;;29.24;32.12
30856;BME280;17570;0.000;0.000;2022-07-23T02:49:37;97111.63;;;29.22;32.43
30856;BME280;17570;0.000;0.000;2022-07-23T02:52:05;97103.84;;;29.21;32.24
30856;BME280;17570;0.000;0.000;2022-07-23T02:54:33;97104.41;;;29.23;32.35
30856;BME280;17570;0.000;0.000;2022-07-23T02:57:00;97108.14;;;29.22;32.15
30856;BME280;17570;0.000;0.000;2022-07-23T02:59:28;97110.56;;;29.23;32.23
30856;BME280;17570;0.000;0.000;2022-07-23T03:01:56;97110.25;;;29.20;32.15
30856;BME280;17570;0.000;0.000;2022-07-23T03:04:24;97104.56;;;29.16;32.31
30856;BME280;17570;0.000;0.000;2022-07-23T03:06:51;97113.64;;;29.15;32.21
30856;BME280;17570;0.000;0.000;2022-07-23T03:09:19;97119.45;;;29.12;32.20
30856;BME280;17570;0.000;0.000;2022-07-23T03:11:46;97117.58;;;29.13;32.26
30856;BME280;17570;0.000;0.000;2022-07-23T03:14:14;97117.83;;;29.11;31.91
30856;BME280;17570;0.000;0.000;2022-07-23T03:16:42;97125.59;;;29.13;32.13
30856;BME280;17570;0.000;0.000;2022-07-23T03:19:10;97123.63;;;29.08;32.03
30856;BME280;17570;0.000;0.000;2022-07-23T03:21:38;97131.09;;;29.06;32.24
30856;BME280;17570;0.000;0.000;2022-07-23T03:24:08;97123.28;;;29.05;32.32
30856;BME280;17570;0.000;0.000;2022-07-23T03:26:36;97133.88;;;29.00;32.52
30856;BME280;17570;0.000;0.000;2022-07-23T03:29:03;97135.17;;;28.97;32.31
30856;BME280;17570;0.000;0.000;2022-07-23T03:31:31;97133.55;;;28.96;32.49
30856;BME280;17570;0.000;0.000;2022-07-23T03:33:58;97136.09;;;29.03;32.74
30856;BME280;17570;0.000;0.000;2022-07-23T03:36:26;97144.06;;;29.14;34.39
30856;BME280;17570;0.000;0.000;2022-07-23T03:38:55;97141.53;;;29.19;34.30
30856;BME280;17570;0.000;0.000;2022-07-23T03:41:22;97132.66;;;29.19;33.99
30856;BME280;17570;0.000;0.000;2022-07-23T03:43:50;97134.53;;;29.18;33.67
30856;BME280;17570;0.000;0.000;2022-07-23T03:46:18;97146.53;;;29.16;33.61
30856;BME280;17570;0.000;0.000;2022-07-23T03:48:45;97138.16;;;29.12;33.45
30856;BME280;17570;0.000;0.000;2022-07-23T03:51:13;97137.91;;;29.14;33.16
30856;BME280;17570;0.000;0.000;2022-07-23T03:53:41;97134.08;;;29.10;33.23
30856;BME280;17570;0.000;0.000;2022-07-23T03:56:08;97143.41;;;29.07;33.22
30856;BME280;17570;0.000;0.000;2022-07-23T03:58:36;97142.34;;;29.08;33.08
30856;BME280;17570;0.000;0.000;2022-07-23T04:01:04;97140.48;;;29.09;33.09
30856;BME280;17570;0.000;0.000;2022-07-23T04:03:31;97142.34;;;29.08;33.08
30856;BME280;17570;0.000;0.000;2022-07-23T04:05:59;97142.34;;;29.08;33.11
30856;BME280;17570;0.000;0.000;2022-07-23T04:08:26;97143.97;;;29.09;33.32
30856;BME280;17570;0.000;0.000;2022-07-23T04:10:56;97140.98;;;29.06;33.35
30856;BME280;17570;0.000;0.000;2022-07-23T04:13:23;97138.86;;;29.08;33.34
30856;BME280;17570;0.000;0.000;2022-07-23T04:15:51;97142.34;;;29.08;33.34
30856;BME280;17570;0.000;0.000;2022-07-23T04:18:19;97140.73;;;29.07;33.26
30856;BME280;17570;0.000;0.000;2022-07-23T04:20:56;97145.83;;;29.09;33.12
30856;BME280;17570;0.000;0.000;2022-07-23T04:23:23;97142.00;;;29.05;33.31
30856;BME280;17570;0.000;0.000;2022-07-23T04:25:51;97142.00;;;29.05;33.10
30856;BME280;17570;0.000;0.000;2022-07-23T04:28:18;97146.98;;;29.13;33.24
30856;BME280;17570;0.000;0.000;2022-07-23T04:30:46;97140.38;;;29.15;33.18
30856;BME280;17570;0.000;0.000;2022-07-23T04:33:14;97140.67;;;29.31;34.63
30856;BME280;17570;0.000;0.000;2022-07-23T04:35:42;97148.33;;;29.39;34.73
30856;BME280;17570;0.000;0.000;2022-07-23T04:38:11;97145.26;;;29.47;34.76
30856;BME280;17570;0.000;0.000;2022-07-23T04:40:39;97139.91;;;29.47;34.72
30856;BME280;17570;0.000;0.000;2022-07-23T04:43:07;97143.73;;;29.51;34.59
30856;BME280;17570;0.000;0.000;2022-07-23T04:45:36;97147.38;;;29.57;34.56
30856;BME280;17570;0.000;0.000;2022-07-23T04:48:04;97145.94;;;29.54;34.50
30856;BME280;17570;0.000;0.000;2022-07-23T04:50:32;97142.33;;;29.60;34.58
30856;BME280;17570;0.000;0.000;2022-07-23T04:52:59;97152.57;;;29.63;34.46
30856;BME280;17570;0.000;0.000;2022-07-23T04:55:27;97149.64;;;29.65;34.60
30856;BME280;17570;0.000;0.000;2022-07-23T04:57:55;97149.98;;;29.68;34.41
30856;BME280;17570;0.000;0.000;2022-07-23T05:00:22;97150.42;;;29.77;34.52
30856;BME280;17570;0.000;0.000;2022-07-23T05:02:50;97154.24;;;29.81;34.91
30856;BME280;17570;0.000;0.000;2022-07-23T05:05:17;97150.04;;;29.85;35.39
30856;BME280;17570;0.000;0.000;2022-07-23T05:07:45;97155.14;;;29.87;35.21
30856;BME280;17570;0.000;0.000;2022-07-23T05:10:13;97155.23;;;29.92;35.98
30856;BME280;17570;0.000;0.000;2022-07-23T05:12:41;97154.51;;;29.96;35.59
30856;BME280;17570;0.000;0.000;2022-07-23T05:15:08;97152.42;;;29.98;35.51
30856;BME280;17570;0.000;0.000;2022-07-23T05:17:36;97157.52;;;30.00;35.38
30856;BME280;17570;0.000;0.000;2022-07-23T05:20:05;97158.67;;;30.04;35.33
30856;BME280;17570;0.000;0.000;2022-07-23T05:22:33;97151.78;;;30.08;34.86
30856;BME280;17570;0.000;0.000;2022-07-23T05:25:01;97160.12;;;30.12;34.94
30856;BME280;17570;0.000;0.000;2022-07-23T05:27:28;97156.19;;;30.14;34.78
30856;BME280;17570;0.000;0.000;2022-07-23T05:29:56;97158.95;;;30.19;34.76
30856;BME280;17570;0.000;0.000;2022-07-23T05:32:24;97156.94;;;30.27;35.05
30856;BME280;17570;0.000;0.000;2022-07-23T05:34:53;97154.34;;;30.32;34.49
30856;BME280;17570;0.000;0.000;2022-07-23T05:37:21;97156.03;;;30.38;34.16
30856;BME280;17570;0.000;0.000;2022-07-23T05:39:48;97158.62;;;30.49;33.37
30856;BME280;17570;0.000;0.000;2022-07-23T05:42:17;97153.66;;;30.58;33.24
30856;BME280;17570;0.000;0.000;2022-07-23T05:44:44;97153.44;;;30.60;33.32
30856;BME280;17570;0.000;0.000;2022-07-23T05:47:12;97155.12;;;30.66;32.96
30856;BME280;17570;0.000;0.000;2022-07-23T05:49:40;97149.61;;;30.72;33.39
30856;BME280;17570;0.000;0.000;2022-07-23T05:52:09;97157.24;;;30.81;33.30
30856;BME280;17570;0.000;0.000;2022-07-23T05:54:41;97153.27;;;30.83;33.40
30856;BME280;17570;0.000;0.000;2022-07-23T05:57:09;97162.12;;;30.84;33.71
30856;BME280;17570;0.000;0.000;2022-07-23T05:59:37;97149.59;;;30.89;33.93
30856;BME280;17570;0.000;0.000;2022-07-23T06:02:06;97152.34;;;30.94;34.12
30856;BME280;17570;0.000;0.000;2022-07-23T06:04:34;97150.80;;;30.98;33.73
30856;BME280;17570;0.000;0.000;2022-07-23T06:07:07;97153.28;;;31.05;33.58
30856;BME280;17570;0.000;0.000;2022-07-23T06:09:35;97152.37;;;31.16;34.08
30856;BME280;17570;0.000;0.000;2022-07-23T06:12:03;97156.94;;;31.38;35.00
30856;BME280;17570;0.000;0.000;2022-07-23T06:14:31;97152.75;;;31.47;34.50
30856;BME280;17570;0.000;0.000;2022-07-23T06:16:58;97148.77;;;31.49;34.43
30856;BME280;17570;0.000;0.000;2022-07-23T06:19:26;97153.38;;;31.54;34.33
30856;BME280;17570;0.000;0.000;2022-07-23T06:21:54;97149.69;;;31.60;33.93
30856;BME280;17570;0.000;0.000;2022-07-23T06:24:21;97151.44;;;31.71;33.85
30856;BME280;17570;0.000;0.000;2022-07-23T06:26:49;97153.09;;;31.78;33.67
30856;BME280;17570;0.000;0.000;2022-07-23T06:29:17;97157.52;;;31.89;33.65
30856;BME280;17570;0.000;0.000;2022-07-23T06:31:45;97146.02;;;31.93;33.04
30856;BME280;17570;0.000;0.000;2022-07-23T06:34:13;97145.27;;;31.98;32.97
30856;BME280;17570;0.000;0.000;2022-07-23T06:36:41;97139.93;;;32.03;33.10
30856;BME280;17570;0.000;0.000;2022-07-23T06:39:09;97135.98;;;32.11;33.42
30856;BME280;17570;0.000;0.000;2022-07-23T06:41:36;97140.32;;;32.17;32.49
30856;BME280;17570;0.000;0.000;2022-07-23T06:44:04;97139.05;;;32.24;32.55
30856;BME280;17570;0.000;0.000;2022-07-23T06:46:33;97135.33;;;32.31;32.23
30856;BME280;17570;0.000;0.000;2022-07-23T06:49:01;97141.55;;;32.36;32.35
30856;BME280;17570;0.000;0.000;2022-07-23T06:51:30;97139.53;;;32.48;33.13
30856;BME280;17570;0.000;0.000;2022-07-23T06:53:59;97129.25;;;32.83;32.92
30856;BME280;17570;0.000;0.000;2022-07-23T06:56:27;97136.65;;;32.97;32.80
30856;BME280;17570;0.000;0.000;2022-07-23T06:58:54;97130.75;;;33.06;32.44
30856;BME280;17570;0.000;0.000;2022-07-23T07:01:22;97127.27;;;33.10;32.40
30856;BME280;17570;0.000;0.000;2022-07-23T07:03:49;97127.03;;;33.12;32.68
30856;BME280;17570;0.000;0.000;2022-07-23T07:06:18;97130.27;;;33.19;32.23
30856;BME280;17570;0.000;0.000;2022-07-23T07:08:46;97125.72;;;33.24;32.66
30856;BME280;17570;0.000;0.000;2022-07-23T07:11:15;97123.96;;;33.50;33.63
30856;BME280;17570;0.000;0.000;2022-07-23T07:13:43;97121.31;;;33.76;33.76
30856;BME280;17570;0.000;0.000;2022-07-23T07:16:10;97126.46;;;33.88;33.16
30856;BME280;17570;0.000;0.000;2022-07-23T07:18:38;97126.98;;;33.90;32.54
30856;BME280;17570;0.000;0.000;2022-07-23T07:21:05;97124.30;;;33.90;31.48
30856;BME280;17570;0.000;0.000;2022-07-23T07:23:33;97121.39;;;33.96;31.21
30856;BME280;17570;0.000;0.000;2022-07-23T07:26:00;97120.58;;;34.06;30.93
30856;BME280;17570;0.000;0.000;2022-07-23T07:28:28;97123.80;;;34.13;30.11
30856;BME280;17570;0.000;0.000;2022-07-23T07:30:56;97117.35;;;34.19;29.43
30856;BME280;17570;0.000;0.000;2022-07-23T07:33:23;97114.13;;;34.28;30.53
30856;BME280;17570;0.000;0.000;2022-07-23T07:35:50;97113.83;;;34.39;29.13
30856;BME280;17570;0.000;0.000;2022-07-23T07:38:18;97117.63;;;34.48;28.99
30856;BME280;17570;0.000;0.000;2022-07-23T07:40:47;97119.22;;;34.55;28.83
30856;BME280;17570;0.000;0.000;2022-07-23T07:43:15;97111.67;;;34.62;28.51
30856;BME280;17570;0.000;0.000;2022-07-23T07:45:42;97118.12;;;34.76;29.92
30856;BME280;17570;0.000;0.000;2022-07-23T07:48:10;97115.67;;;34.85;27.53
30856;BME280;17570;0.000;0.000;2022-07-23T07:50:37;97115.11;;;34.93;27.00
30856;BME280;17570;0.000;0.000;2022-07-23T07:53:05;97105.11;;;35.04;27.91
30856;BME280;17570;0.000;0.000;2022-07-23T07:55:32;97108.05;;;35.12;28.72
30856;BME280;17570;0.000;0.000;2022-07-23T07:58:00;97098.03;;;35.18;27.23
30856;BME280;17570;0.000;0.000;2022-07-23T08:00:27;97095.83;;;35.25;27.19
30856;BME280;17570;0.000;0.000;2022-07-23T08:02:55;97091.75;;;35.33;25.71
30856;BME280;17570;0.000;0.000;2022-07-23T08:05:23;97095.77;;;35.40;25.63
30856;BME280;17570;0.000;0.000;2022-07-23T08:07:51;97097.89;;;35.48;26.25
30856;BME280;17570;0.000;0.000;2022-07-23T08:10:19;97094.64;;;35.51;25.42
30856;BME280;17570;0.000;0.000;2022-07-23T08:12:47;97092.20;;;35.55;25.58
30856;BME280;17570;0.000;0.000;2022-07-23T08:15:16;97092.42;;;35.64;24.85
30856;BME280;17570;0.000;0.000;2022-07-23T08:17:44;97085.38;;;35.68;26.55
30856;BME280;17570;0.000;0.000;2022-07-23T08:20:13;97094.50;;;35.77;24.17
30856;BME280;17570;0.000;0.000;2022-07-23T08:22:51;97088.43;;;35.90;23.69
30856;BME280;17570;0.000;0.000;2022-07-23T08:27:51;97083.11;;;36.19;24.18
30856;BME280;17570;0.000;0.000;2022-07-23T08:30:19;97080.31;;;36.30;22.73
30856;BME280;17570;0.000;0.000;2022-07-23T08:32:47;97074.80;;;36.40;22.06
30856;BME280;17570;0.000;0.000;2022-07-23T08:35:15;97077.42;;;36.50;20.97
30856;BME280;17570;0.000;0.000;2022-07-23T08:37:45;97076.24;;;36.61;20.90
30856;BME280;17570;0.000;0.000;2022-07-23T08:40:12;97076.45;;;36.65;21.84
30856;BME280;17570;0.000;0.000;2022-07-23T08:42:40;97080.73;;;36.71;20.86
30856;BME280;17570;0.000;0.000;2022-07-23T08:45:08;97070.89;;;36.80;21.09
30856;BME280;17570;0.000;0.000;2022-07-23T08:47:37;97080.05;;;36.84;20.59
30856;BME280;17570;0.000;0.000;2022-07-23T08:50:08;97079.19;;;36.89;22.35
30856;BME280;17570;0.000;0.000;2022-07-23T08:52:35;97073.23;;;36.87;20.59
30856;BME280;17570;0.000;0.000;2022-07-23T08:55:03;97075.34;;;36.95;20.75
30856;BME280;17570;0.000;0.000;2022-07-23T08:57:31;97076.58;;;37.02;21.21
30856;BME280;17570;0.000;0.000;2022-07-23T08:59:59;97077.62;;;37.07;21.68
30856;BME280;17570;0.000;0.000;2022-07-23T09:02:26;97078.38;;;37.12;22.64
30856;BME280;17570;0.000;0.000;2022-07-23T09:04:54;97075.61;;;37.17;21.08
30856;BME280;17570;0.000;0.000;2022-07-23T09:07:21;97073.33;;;37.24;21.87
30856;BME280;17570;0.000;0.000;2022-07-23T09:09:57;97076.50;;;37.32;21.47
30856;BME280;17570;0.000;0.000;2022-07-23T09:12:18;97076.43;;;37.37;21.08
30856;BME280;17570;0.000;0.000;2022-07-23T09:14:45;97081.00;;;37.41;21.31
30856;BME280;17570;0.000;0.000;2022-07-23T09:17:16;97079.25;;;37.50;22.16
30856;BME280;17570;0.000;0.000;2022-07-23T09:19:45;97076.95;;;37.58;20.48
30856;BME280;17570;0.000;0.000;2022-07-23T09:22:22;97082.02;;;37.64;21.45
30856;BME280;17570;0.000;0.000;2022-07-23T09:25:03;97082.45;;;37.71;21.68
30856;BME280;17570;0.000;0.000;2022-07-23T09:28:17;97074.62;;;37.70;20.52
30856;BME280;17570;0.000;0.000;2022-07-23T09:30:00;97071.03;;;37.74;19.96
30856;BME280;17570;0.000;0.000;2022-07-23T09:32:28;97072.50;;;37.86;20.16
30856;BME280;17570;0.000;0.000;2022-07-23T09:34:55;97073.96;;;37.97;20.87
30856;BME280;17570;0.000;0.000;2022-07-23T09:37:23;97073.26;;;38.05;21.01
30856;BME280;17570;0.000;0.000;2022-07-23T09:39:50;97069.88;;;38.13;20.07
30856;BME280;17570;0.000;0.000;2022-07-23T09:42:21;97064.09;;;38.20;20.34
30856;BME280;17570;0.000;0.000;2022-07-23T09:44:52;97069.60;;;38.28;20.69
30856;BME280;17570;0.000;0.000;2022-07-23T09:47:21;97064.14;;;38.34;20.56
30856;BME280;17570;0.000;0.000;2022-07-23T09:50:08;97066.45;;;38.40;20.69
30856;BME280;17570;0.000;0.000;2022-07-23T09:52:46;97068.77;;;38.47;21.02
30856;BME280;17570;0.000;0.000;2022-07-23T09:55:05;97067.16;;;38.46;20.68
30856;BME280;17570;0.000;0.000;2022-07-23T09:57:33;97069.09;;;38.59;19.51
30856;BME280;17570;0.000;0.000;2022-07-23T10:00:03;97068.30;;;38.72;19.89
30856;BME280;17570;0.000;0.000;2022-07-23T10:02:31;97064.29;;;38.84;19.20
30856;BME280;17570;0.000;0.000;2022-07-23T10:05:17;97060.88;;;38.92;19.41
30856;BME280;17570;0.000;0.000;2022-07-23T10:07:50;97060.08;;;38.91;19.25
30856;BME280;17570;0.000;0.000;2022-07-23T10:10:36;97061.45;;;39.02;20.27
30856;BME280;17570;0.000;0.000;2022-07-23T10:13:18;97055.54;;;39.00;20.06
30856;BME280;17570;0.000;0.000;2022-07-23T10:15:48;97057.23;;;39.10;20.35
30856;BME280;17570;0.000;0.000;2022-07-23T10:18:16;97050.09;;;39.28;19.04
30856;BME280;17570;0.000;0.000;2022-07-23T10:20:43;97048.95;;;39.43;19.45
30856;BME280;17570;0.000;0.000;2022-07-23T10:23:18;97045.67;;;39.54;20.15
30856;BME280;17570;0.000;0.000;2022-07-23T10:26:02;97038.52;;;39.59;21.30
30856;BME280;17570;0.000;0.000;2022-07-23T10:33:53;97039.98;;;39.78;21.29
30856;BME280;17570;0.000;0.000;2022-07-23T10:36:20;97040.22;;;39.91;21.09
30856;BME280;17570;0.000;0.000;2022-07-23T10:39:04;97040.27;;;39.99;20.28
30856;BME280;17570;0.000;0.000;2022-07-23T10:41:40;97034.66;;;40.18;20.17
30856;BME280;17570;0.000;0.000;2022-07-23T10:44:17;97023.50;;;40.28;19.68
30856;BME280;17570;0.000;0.000;2022-07-23T10:46:59;97021.66;;;40.46;19.53
30856;BME280;17570;0.000;0.000;2022-07-23T10:49:45;97020.96;;;40.63;19.84
30856;BME280;17570;0.000;0.000;2022-07-23T10:54:43;97024.39;;;40.86;19.43
30856;BME280;17570;0.000;0.000;2022-07-23T10:57:11;97020.13;;;41.11;19.69
30856;BME280;17570;0.000;0.000;2022-07-23T11:02:24;97015.68;;;41.50;19.26
30856;BME280;17570;0.000;0.000;2022-07-23T11:04:52;97010.89;;;41.56;19.00
30856;BME280;17570;0.000;0.000;2022-07-23T11:07:20;97011.54;;;41.78;19.01
30856;BME280;17570;0.000;0.000;2022-07-23T11:09:48;97012.44;;;42.00;19.14
30856;BME280;17570;0.000;0.000;2022-07-23T11:17:26;96992.86;;;42.53;18.98
30856;BME280;17570;0.000;0.000;2022-07-23T11:25:14;96997.60;;;42.95;18.81
30856;BME280;17570;0.000;0.000;2022-07-23T11:27:43;96988.32;;;43.17;18.61
30856;BME280;17570;0.000;0.000;2022-07-23T11:30:36;96993.00;;;43.37;18.35
30856;BME280;17570;0.000;0.000;2022-07-23T11:32:40;96989.45;;;43.58;18.20
30856;BME280;17570;0.000;0.000;2022-07-23T11:35:22;96991.69;;;43.76;17.84
30856;BME280;17570;0.000;0.000;2022-07-23T11:37:52;96977.86;;;43.94;17.81
30856;BME280;17570;0.000;0.000;2022-07-23T11:42:08;96981.80;;;44.29;17.77
30856;BME280;17570;0.000;0.000;2022-07-23T11:44:36;96977.48;;;44.41;17.70
30856;BME280;17570;0.000;0.000;2022-07-23T11:47:07;96978.18;;;44.62;17.43
30856;BME280;17570;0.000;0.000;2022-07-23T11:49:34;96975.20;;;44.79;17.39
30856;BME280;17570;0.000;0.000;2022-07-23T11:52:05;96975.63;;;44.94;17.24
30856;BME280;17570;0.000;0.000;2022-07-23T11:54:33;96971.50;;;45.12;16.96
30856;BME280;17570;0.000;0.000;2022-07-23T11:57:01;96970.44;;;45.29;16.61
30856;BME280;17570;0.000;0.000;2022-07-23T11:59:32;96961.66;;;45.51;16.36
30856;BME280;17570;0.000;0.000;2022-07-23T12:02:00;96967.64;;;45.69;16.32
30856;BME280;17570;0.000;0.000;2022-07-23T12:04:40;96975.32;;;45.92;16.10
30856;BME280;17570;0.000;0.000;2022-07-23T12:07:24;96974.26;;;46.12;16.12
30856;BME280;17570;0.000;0.000;2022-07-23T12:09:57;96969.52;;;46.25;16.06
30856;BME280;17570;0.000;0.000;2022-07-23T12:12:29;96976.14;;;46.40;16.30
30856;BME280;17570;0.000;0.000;2022-07-23T12:28:27;96957.39;;;43.04;18.59
30856;BME280;17570;0.000;0.000;2022-07-23T12:30:52;96950.09;;;44.53;18.18
30856;BME280;17570;0.000;0.000;2022-07-23T12:33:27;96945.59;;;46.41;16.48
30856;BME280;17570;0.000;0.000;2022-07-23T12:35:55;96940.62;;;47.56;15.54
30856;BME280;17570;0.000;0.000;2022-07-23T12:38:23;96944.17;;;48.22;14.80
30856;BME280;17570;0.000;0.000;2022-07-23T12:40:55;96939.71;;;48.63;14.47
30856;BME280;17570;0.000;0.000;2022-07-23T12:45:53;96930.63;;;49.16;14.16
30856;BME280;17570;0.000;0.000;2022-07-23T12:48:22;96937.16;;;49.38;13.48
30856;BME280;17570;0.000;0.000;2022-07-23T12:53:38;96938.41;;;49.77;13.09
30856;BME280;17570;0.000;0.000;2022-07-23T12:56:11;96927.09;;;49.90;13.09
30856;BME280;17570;0.000;0.000;2022-07-23T13:06:26;96927.27;;;50.59;12.56
30856;BME280;17570;0.000;0.000;2022-07-23T13:08:54;96929.34;;;50.76;12.62
30856;BME280;17570;0.000;0.000;2022-07-23T13:11:21;96927.88;;;50.97;12.30
30856;BME280;17570;0.000;0.000;2022-07-23T13:13:50;96929.95;;;51.18;12.49
30856;BME280;17570;0.000;0.000;2022-07-23T13:16:17;96921.32;;;51.34;12.10
30856;BME280;17570;0.000;0.000;2022-07-23T13:18:45;96926.11;;;51.51;12.00
30856;BME280;17570;0.000;0.000;2022-07-23T13:21:13;96915.89;;;51.69;11.78
30856;BME280;17570;0.000;0.000;2022-07-23T13:23:41;96913.95;;;51.88;11.64
30856;BME280;17570;0.000;0.000;2022-07-23T13:26:09;96912.38;;;52.01;10.85
30856;BME280;17570;0.000;0.000;2022-07-23T13:28:59;96915.14;;;52.15;10.73
30856;BME280;17570;0.000;0.000;2022-07-23T13:31:26;96913.55;;;52.03;10.80
30856;BME280;17570;0.000;0.000;2022-07-23T13:33:54;96909.21;;;52.10;10.71
30856;BME280;17570;0.000;0.000;2022-07-23T13:36:21;96915.14;;;52.19;10.43
30856;BME280;17570;0.000;0.000;2022-07-23T13:38:49;96913.17;;;52.34;10.40
30856;BME280;17570;0.000;0.000;2022-07-23T13:41:18;96909.58;;;52.47;10.70
30856;BME280;17570;0.000;0.000;2022-07-23T13:43:45;96898.48;;;52.62;10.38
30856;BME280;17570;0.000;0.000;2022-07-23T13:46:13;96900.00;;;52.81;10.27
30856;BME280;17570;0.000;0.000;2022-07-23T13:48:40;96899.95;;;52.98;10.07
30856;BME280;17570;0.000;0.000;2022-07-23T13:51:08;96902.25;;;53.14;10.38
30856;BME280;17570;0.000;0.000;2022-07-23T13:53:36;96897.02;;;53.31;10.08
30856;BME280;17570;0.000;0.000;2022-07-23T13:56:03;96895.34;;;53.47;9.78
30856;BME280;17570;0.000;0.000;2022-07-23T13:58:31;96896.48;;;53.57;9.85
30856;BME280;17570;0.000;0.000;2022-07-23T14:00:58;96890.89;;;53.64;9.59
30856;BME280;17570;0.000;0.000;2022-07-23T14:03:26;96895.17;;;53.72;9.45
30856;BME280;17570;0.000;0.000;2022-07-23T14:05:53;96897.10;;;53.83;9.41
30856;BME280;17570;0.000;0.000;2022-07-23T14:08:20;96891.48;;;53.93;9.08
30856;BME280;17570;0.000;0.000;2022-07-23T14:10:48;96886.59;;;54.05;9.14
30856;BME280;17570;0.000;0.000;2022-07-23T14:13:16;96868.24;;;54.14;8.82